Time;durP1;ratioP1;P1;durP2;ratioP2;P2;SDS_P1;SDS_P2;PMS_P1;PMS_P2;Temp;Humidity;BMP_temperature;BMP_pressure;BME280_temperature;BME280_humidity;BME280_pressure;Samples;Min_cycle;Max_cycle;Signal;HPM_P1;HPM_P2
2022/04/01 00:01:50;;;;;;;18.20;15.00;;;1.30;99.90;;;;;;5070926;28;20023;-65
2022/04/01 00:04:17;;;;;;;17.48;14.35;;;1.40;99.90;;;;;;5070651;28;20127;-66
2022/04/01 00:06:42;;;;;;;16.65;13.93;;;1.30;99.90;;;;;;5070926;28;20469;-66
2022/04/01 00:09:08;;;;;;;17.80;14.60;;;1.40;99.90;;;;;;5071617;28;20115;-66
2022/04/01 00:11:34;;;;;;;18.52;15.00;;;1.30;99.90;;;;;;5072218;28;20029;-65
2022/04/01 00:14:00;;;;;;;18.75;15.48;;;1.30;99.90;;;;;;5071948;28;20025;-65
2022/04/01 00:16:25;;;;;;;19.83;14.60;;;1.30;99.90;;;;;;5070708;28;20021;-65
2022/04/01 00:18:51;;;;;;;20.30;15.25;;;1.20;99.90;;;;;;5071679;28;20113;-66
2022/04/01 00:21:17;;;;;;;18.20;14.40;;;1.30;99.90;;;;;;5075555;28;20066;-65
2022/04/01 00:23:42;;;;;;;18.85;15.40;;;1.20;99.90;;;;;;5075874;28;20107;-63
2022/04/01 00:26:09;;;;;;;19.58;15.05;;;1.20;99.90;;;;;;5075440;28;20449;-65
2022/04/01 00:28:34;;;;;;;18.95;14.93;;;1.20;99.90;;;;;;5075665;28;20012;-65
2022/04/01 00:31:00;;;;;;;19.85;16.55;;;1.30;99.90;;;;;;5074690;28;20058;-66
2022/04/01 00:33:26;;;;;;;19.48;15.60;;;1.30;99.90;;;;;;5075474;28;20021;-65
2022/04/01 00:35:52;;;;;;;20.35;15.63;;;1.30;99.90;;;;;;5075231;28;20101;-65
2022/04/01 00:38:18;;;;;;;18.40;15.20;;;1.30;99.90;;;;;;5075289;28;20480;-64
2022/04/01 00:40:44;;;;;;;19.10;15.55;;;1.30;99.90;;;;;;5075079;28;20049;-66
2022/04/01 00:43:11;;;;;;;19.95;15.50;;;1.30;99.90;;;;;;5075536;28;20378;-64
2022/04/01 00:45:37;;;;;;;19.75;15.60;;;1.20;99.90;;;;;;5075038;28;20024;-65
2022/04/01 00:48:03;;;;;;;19.70;15.25;;;1.30;99.90;;;;;;5075316;28;20567;-64
2022/04/01 00:50:33;;;;;;;24.60;15.88;;;1.30;99.90;;;;;;5074886;28;20388;-66
2022/04/01 00:52:59;;;;;;;19.92;16.58;;;1.30;99.90;;;;;;5075219;28;20052;-66
2022/04/01 00:55:27;;;;;;;20.90;16.80;;;1.30;99.90;;;;;;5074869;28;20050;-65
2022/04/01 00:57:53;;;;;;;18.50;16.40;;;1.30;99.90;;;;;;5075069;28;20025;-66
2022/04/01 01:00:19;;;;;;;19.17;16.20;;;1.30;99.90;;;;;;5074887;28;20029;-65
2022/04/01 01:02:45;;;;;;;21.67;16.27;;;1.20;99.90;;;;;;5075476;28;20024;-65
2022/04/01 01:05:11;;;;;;;19.80;16.33;;;1.20;99.90;;;;;;5074539;28;20505;-66
2022/04/01 01:07:42;;;;;;;20.63;17.00;;;1.20;99.90;;;;;;5075151;28;20009;-65
2022/04/01 01:10:10;;;;;;;22.25;15.88;;;1.20;99.90;;;;;;5074871;28;20039;-65
2022/04/01 01:12:36;;;;;;;19.80;15.88;;;1.30;99.90;;;;;;5075153;28;20557;-66
2022/04/01 01:15:10;;;;;;;19.20;15.77;;;1.30;99.90;;;;;;5074323;28;20025;-66
2022/04/01 01:17:40;;;;;;;18.67;15.50;;;1.30;99.90;;;;;;5074240;28;20027;-65
2022/04/01 01:20:12;;;;;;;17.33;14.55;;;1.30;99.90;;;;;;5073939;28;20021;-65
2022/04/01 01:22:40;;;;;;;18.63;16.55;;;1.30;99.90;;;;;;5074289;28;20526;-66
2022/04/01 01:25:08;;;;;;;21.23;15.73;;;1.20;99.90;;;;;;5073227;28;20024;-63
2022/04/01 01:27:34;;;;;;;;;;;1.20;99.90;;;;;;5075097;28;20025;-65
2022/04/01 01:30:02;;;;;;;18.10;15.23;;;1.20;99.90;;;;;;5074245;28;19943;-65
2022/04/01 01:32:29;;;;;;;18.80;15.60;;;1.20;99.90;;;;;;5074399;28;20396;-65
2022/04/01 01:34:55;;;;;;;19.15;15.18;;;1.20;99.90;;;;;;5072810;28;20029;-66
2022/04/01 01:37:21;;;;;;;19.90;16.30;;;1.30;99.90;;;;;;5074508;28;20500;-65
2022/04/01 01:39:47;;;;;;;43.65;31.67;;;1.20;99.90;;;;;;5074048;28;20036;-65
2022/04/01 01:42:12;;;;;;;22.17;17.45;;;1.30;99.90;;;;;;5074644;28;20074;-65
2022/04/01 01:44:38;;;;;;;20.55;16.90;;;1.30;99.90;;;;;;5073087;28;20544;-66
2022/04/01 01:47:05;;;;;;;22.25;17.75;;;1.30;99.90;;;;;;5073953;28;20543;-66
2022/04/01 01:49:31;;;;;;;24.65;18.30;;;1.20;99.90;;;;;;5073803;28;20487;-66
2022/04/01 01:54:44;;;;;;;18.75;14.95;;;1.20;99.90;;;;;;5074111;28;20069;-63
2022/04/01 01:57:15;;;;;;;18.15;14.60;;;1.10;99.90;;;;;;5073785;28;20016;-66
2022/04/01 01:59:40;;;;;;;18.85;15.32;;;1.00;99.90;;;;;;5073813;28;20028;-65
2022/04/01 02:02:07;;;;;;;17.55;15.02;;;1.10;99.90;;;;;;5073863;28;20027;-65
2022/04/01 02:04:34;;;;;;;17.80;14.85;;;1.10;99.90;;;;;;5073717;28;20036;-65
2022/04/01 02:07:00;;;;;;;18.00;14.75;;;1.10;99.90;;;;;;5073542;28;20021;-65
2022/04/01 02:09:25;;;;;;;18.80;15.25;;;1.10;99.90;;;;;;5073312;28;20020;-65
2022/04/01 02:11:52;;;;;;;18.63;14.95;;;1.10;99.90;;;;;;5073214;28;20480;-66
2022/04/01 02:14:17;;;;;;;18.52;15.20;;;1.00;99.90;;;;;;5073581;28;20075;-66
2022/04/01 02:16:43;;;;;;;18.17;14.60;;;1.00;99.90;;;;;;5073552;28;20017;-66
2022/04/01 02:19:10;;;;;;;18.85;15.75;;;1.00;99.90;;;;;;5071852;28;20020;-65
2022/04/01 02:21:36;;;;;;;17.48;14.65;;;0.90;99.90;;;;;;5073591;28;20104;-66
2022/04/01 02:24:06;;;;;;;18.13;14.90;;;0.90;99.90;;;;;;5071846;28;20062;-64
2022/04/01 02:26:32;;;;;;;21.17;15.55;;;1.00;99.90;;;;;;5072068;28;20033;-64
2022/04/01 02:28:59;;;;;;;18.42;15.23;;;1.00;99.90;;;;;;5072910;28;20017;-65
2022/04/01 02:31:25;;;;;;;17.35;15.10;;;1.00;99.90;;;;;;5072088;28;20086;-66
2022/04/01 02:33:51;;;;;;;17.55;14.80;;;1.00;99.90;;;;;;5071802;28;20021;-63
2022/04/01 02:36:17;;;;;;;18.40;15.20;;;1.00;99.90;;;;;;5072648;28;20028;-65
2022/04/01 02:38:43;;;;;;;19.83;15.90;;;1.00;99.90;;;;;;5073103;28;20040;-65
2022/04/01 02:41:11;;;;;;;17.95;14.93;;;0.90;99.90;;;;;;5072731;28;20028;-65
2022/04/01 02:43:37;;;;;;;18.63;15.15;;;0.90;99.90;;;;;;5071114;28;20074;-65
2022/04/01 02:46:05;;;;;;;19.80;14.07;;;1.00;99.90;;;;;;5072732;28;20579;-63
2022/04/01 02:48:31;;;;;;;20.08;15.65;;;0.90;99.90;;;;;;5073009;28;20082;-66
2022/04/01 02:50:56;;;;;;;19.08;15.13;;;0.90;99.90;;;;;;5072514;28;20028;-65
2022/04/01 02:53:22;;;;;;;19.08;15.60;;;0.90;99.90;;;;;;5072557;28;20500;-66
2022/04/01 02:55:47;;;;;;;19.92;14.95;;;0.90;99.90;;;;;;5070935;28;20025;-64
2022/04/01 02:58:13;;;;;;;19.20;14.77;;;0.90;99.90;;;;;;5072617;28;20032;-66
2022/04/01 03:00:39;;;;;;;19.02;15.52;;;1.00;99.90;;;;;;5070965;28;20039;-65
2022/04/01 03:03:09;;;;;;;22.70;17.58;;;1.00;99.90;;;;;;5071571;28;20365;-66
2022/04/01 03:05:39;;;;;;;19.83;17.70;;;0.90;99.90;;;;;;5072305;28;20496;-65
2022/04/01 03:08:06;;;;;;;19.60;17.50;;;0.90;99.90;;;;;;5072578;28;20029;-66
2022/04/01 03:10:32;;;;;;;21.52;17.38;;;0.80;99.90;;;;;;5072595;28;20031;-66
2022/04/01 03:12:59;;;;;;;19.95;17.85;;;0.80;99.90;;;;;;5071311;28;20021;-66
2022/04/01 03:15:24;;;;;;;20.98;18.77;;;0.90;99.90;;;;;;5070929;28;20032;-64
2022/04/01 03:17:50;;;;;;;20.40;18.20;;;0.90;99.90;;;;;;5072147;28;20430;-65
2022/04/01 03:20:16;;;;;;;19.55;17.48;;;0.90;99.90;;;;;;5072123;28;20200;-65
2022/04/01 03:22:43;;;;;;;20.08;17.98;;;0.90;99.90;;;;;;5072183;28;20032;-65
2022/04/01 03:25:18;;;;;;;20.20;17.75;;;0.80;99.90;;;;;;5072290;28;20033;-65
2022/04/01 03:27:48;;;;;;;21.38;17.27;;;0.80;99.90;;;;;;5072455;28;20078;-65
2022/04/01 03:30:15;;;;;;;20.88;18.00;;;0.80;99.90;;;;;;5072491;28;20021;-65
2022/04/01 03:32:41;;;;;;;20.65;18.45;;;0.80;99.90;;;;;;5072624;28;20040;-65
2022/04/01 03:35:09;;;;;;;19.73;17.63;;;0.80;99.90;;;;;;5072242;28;20024;-66
2022/04/01 03:37:35;;;;;;;22.20;19.92;;;0.80;99.90;;;;;;5072858;28;20032;-66
2022/04/01 03:40:02;;;;;;;20.10;17.80;;;0.90;99.90;;;;;;5070795;28;20028;-65
2022/04/01 03:42:30;;;;;;;21.65;19.40;;;0.90;99.90;;;;;;5070745;28;20417;-65
2022/04/01 03:45:03;;;;;;;21.85;19.45;;;0.80;99.90;;;;;;5072081;28;20527;-64
2022/04/01 03:47:41;;;;;;;22.00;19.70;;;0.90;99.90;;;;;;5072417;28;20155;-65
2022/04/01 03:50:10;;;;;;;21.67;19.47;;;0.90;99.90;;;;;;5071985;28;20379;-65
2022/04/01 03:52:36;;;;;;;21.42;19.25;;;0.80;99.90;;;;;;5072512;28;20477;-66
2022/04/01 03:55:07;;;;;;;23.27;20.73;;;0.80;99.90;;;;;;5074981;28;20040;-65
2022/04/01 03:57:39;;;;;;;22.25;19.90;;;0.80;99.90;;;;;;5076089;28;20024;-65
2022/04/01 04:00:07;;;;;;;21.83;19.52;;;0.80;99.90;;;;;;5075843;28;20017;-66
2022/04/01 04:02:34;;;;;;;21.95;19.65;;;0.80;99.90;;;;;;5076212;28;20499;-65
2022/04/01 04:05:01;;;;;;;22.92;20.52;;;0.90;99.90;;;;;;5075607;28;20103;-65
2022/04/01 04:07:29;;;;;;;23.17;20.88;;;0.90;99.90;;;;;;5074613;28;20028;-66
2022/04/01 04:09:56;;;;;;;23.10;20.65;;;0.80;99.90;;;;;;5075750;28;20028;-63
2022/04/01 04:12:22;;;;;;;22.77;20.38;;;0.80;99.90;;;;;;5076025;28;20416;-64
2022/04/01 04:14:54;;;;;;;24.85;22.27;;;0.80;99.90;;;;;;5075481;28;20108;-64
2022/04/01 04:17:39;;;;;;;24.45;21.23;;;0.80;99.90;;;;;;5074572;28;20021;-64
2022/04/01 04:20:38;;;;;;;24.35;21.75;;;0.80;99.90;;;;;;5075768;28;20016;-64
2022/04/01 04:23:21;;;;;;;23.38;20.88;;;0.80;99.90;;;;;;5075299;28;20035;-64
2022/04/01 04:26:01;;;;;;;26.38;21.00;;;0.80;99.90;;;;;;5075606;28;20105;-64
2022/04/01 04:28:31;;;;;;;23.85;21.33;;;0.80;99.90;;;;;;5073832;28;20446;-64
2022/04/01 04:31:02;;;;;;;22.58;20.17;;;0.70;99.90;;;;;;5075353;28;20058;-64
2022/04/01 04:33:33;;;;;;;23.83;21.33;;;0.70;99.90;;;;;;5076424;28;20032;-63
2022/04/01 04:36:04;;;;;;;23.63;20.70;;;0.80;99.90;;;;;;5076773;28;20114;-64
2022/04/01 04:38:36;;;;;;;22.15;19.33;;;0.70;99.90;;;;;;5077079;28;20032;-61
2022/04/01 04:41:08;;;;;;;23.60;21.13;;;0.80;99.90;;;;;;5074690;28;20115;-59
2022/04/01 04:43:41;;;;;;;22.73;19.50;;;0.70;99.90;;;;;;5076647;28;20042;-62
2022/04/01 04:46:09;;;;;;;21.60;19.30;;;0.90;99.90;;;;;;5075864;28;20083;-64
2022/04/01 04:48:36;;;;;;;27.50;19.65;;;1.00;99.90;;;;;;5075511;28;20024;-64
2022/04/01 04:51:03;;;;;;;30.05;19.95;;;1.10;99.90;;;;;;5075065;28;20044;-64
2022/04/01 04:53:31;;;;;;;22.27;20.08;;;1.20;99.90;;;;;;5074490;28;20032;-63
2022/04/01 04:56:04;;;;;;;21.67;19.08;;;1.20;99.90;;;;;;5073401;28;20427;-64
2022/04/01 04:58:43;;;;;;;23.80;20.70;;;1.20;99.90;;;;;;5075008;28;20029;-63
2022/04/01 05:01:32;;;;;;;23.10;20.70;;;1.20;99.90;;;;;;5074479;28;20484;-61
2022/04/01 05:04:16;;;;;;;23.38;20.98;;;1.10;99.90;;;;;;5074746;28;20025;-64
2022/04/01 05:06:53;;;;;;;22.10;19.83;;;1.00;99.90;;;;;;5074616;28;20021;-65
2022/04/01 05:09:57;;;;;;;22.08;19.77;;;0.90;99.90;;;;;;5074838;28;20017;-64
2022/04/01 05:12:42;;;;;;;23.35;20.85;;;0.90;99.90;;;;;;5074990;28;20028;-65
2022/04/01 05:15:09;;;;;;;22.55;19.70;;;0.90;99.90;;;;;;5074407;28;20488;-63
2022/04/01 05:17:53;;;;;;;20.58;18.38;;;0.90;99.90;;;;;;5074913;28;20029;-63
2022/04/01 05:20:25;;;;;;;21.38;19.20;;;0.90;99.90;;;;;;5074372;28;20023;-62
2022/04/01 05:23:20;;;;;;;21.98;19.42;;;0.90;99.90;;;;;;5075032;28;20107;-62
2022/04/01 05:25:51;;;;;;;21.45;19.35;;;0.90;99.90;;;;;;5073369;28;20020;-65
2022/04/01 05:28:23;;;;;;;21.13;18.95;;;0.90;99.90;;;;;;5073240;28;20705;-63
2022/04/01 05:31:09;;;;;;;21.15;18.95;;;0.80;99.90;;;;;;5074436;28;20505;-63
2022/04/01 05:33:45;;;;;;;22.30;20.00;;;0.90;99.90;;;;;;5074017;28;20146;-63
2022/04/01 05:36:12;;;;;;;21.58;19.35;;;0.80;99.90;;;;;;5072785;28;20025;-66
2022/04/01 05:38:40;;;;;;;21.40;19.20;;;0.80;99.90;;;;;;5074708;28;20069;-62
2022/04/01 05:41:06;;;;;;;21.37;19.27;;;0.80;99.90;;;;;;5073429;28;20620;-64
2022/04/01 05:43:33;;;;;;;24.25;20.50;;;0.90;99.90;;;;;;5072931;28;20036;-65
2022/04/01 05:45:58;;;;;;;21.88;19.60;;;0.90;99.90;;;;;;5073670;28;20028;-65
2022/04/01 05:48:27;;;;;;;21.55;19.25;;;1.00;99.90;;;;;;5073786;28;20033;-64
2022/04/01 05:50:53;;;;;;;23.17;20.15;;;0.90;99.90;;;;;;5073914;28;20048;-65
2022/04/01 05:53:21;;;;;;;22.60;20.10;;;0.90;99.90;;;;;;5074065;28;20082;-65
2022/04/01 05:55:47;;;;;;;;;;;0.90;99.90;;;;;;5072346;28;20391;-64
2022/04/01 05:58:13;;;;;;;22.08;19.88;;;0.90;99.90;;;;;;5073887;28;19912;-65
2022/04/01 06:00:51;;;;;;;21.70;19.42;;;0.90;99.90;;;;;;5073577;28;20025;-66
2022/04/01 06:03:28;;;;;;;21.85;19.55;;;1.00;99.90;;;;;;5073766;28;20101;-63
2022/04/01 06:06:01;;;;;;;23.48;20.92;;;0.90;99.90;;;;;;5073501;28;20085;-64
2022/04/01 06:08:59;;;;;;;21.55;19.33;;;1.00;99.90;;;;;;5073531;28;20025;-66
2022/04/01 06:12:09;;;;;;;21.50;19.27;;;1.00;99.90;;;;;;5073092;28;20048;-66
2022/04/01 06:14:46;;;;;;;21.40;19.17;;;1.10;99.90;;;;;;5050096;28;20034;-65
2022/04/01 06:17:17;;;;;;;22.02;19.58;;;1.10;99.90;;;;;;5072296;28;20016;-65
2022/04/01 06:19:45;;;;;;;21.88;19.73;;;1.00;99.90;;;;;;5072844;28;20042;-65
2022/04/01 06:22:20;;;;;;;20.50;18.30;;;1.10;99.90;;;;;;5073587;28;20435;-65
2022/04/01 06:24:51;;;;;;;20.77;18.67;;;1.10;99.90;;;;;;5072800;28;20058;-65
2022/04/01 06:27:38;;;;;;;20.75;18.55;;;1.20;99.90;;;;;;5073233;28;20028;-65
2022/04/01 06:30:07;;;;;;;25.23;18.15;;;1.20;99.90;;;;;;5073140;28;20071;-67
2022/04/01 06:32:43;;;;;;;19.98;17.88;;;1.30;99.90;;;;;;5073392;28;20028;-65
2022/04/01 06:35:18;;;;;;;20.08;17.98;;;1.30;99.90;;;;;;5072609;28;20107;-66
2022/04/01 06:37:51;;;;;;;19.98;17.88;;;1.30;99.90;;;;;;5071888;28;20021;-65
2022/04/01 06:40:23;;;;;;;19.35;17.25;;;1.20;99.90;;;;;;5071267;28;20025;-65
2022/04/01 06:42:53;;;;;;;24.00;18.15;;;1.20;99.90;;;;;;5073203;28;20048;-66
2022/04/01 06:45:19;;;;;;;19.83;17.35;;;1.30;99.90;;;;;;5071750;28;20021;-65
2022/04/01 06:47:45;;;;;;;20.33;18.15;;;1.30;99.90;;;;;;5073026;28;20107;-63
2022/04/01 06:50:12;;;;;;;21.52;18.48;;;1.40;99.90;;;;;;5073058;28;20020;-63
2022/04/01 06:52:39;;;;;;;20.20;18.00;;;1.50;99.90;;;;;;5071403;28;20497;-65
2022/04/01 06:55:08;;;;;;;21.35;18.33;;;1.40;99.90;;;;;;5072380;28;20056;-63
2022/04/01 06:57:34;;;;;;;20.25;17.98;;;1.40;99.90;;;;;;5072524;28;20052;-65
2022/04/01 07:00:00;;;;;;;19.65;17.55;;;1.40;99.90;;;;;;5072252;28;20017;-65
2022/04/01 07:02:25;;;;;;;20.17;18.08;;;1.40;99.90;;;;;;5071355;28;20082;-66
2022/04/01 07:04:51;;;;;;;20.48;18.27;;;1.40;99.90;;;;;;5072385;28;20036;-67
2022/04/01 07:07:17;;;;;;;20.58;18.38;;;1.40;99.90;;;;;;5072739;28;20021;-64
2022/04/01 07:09:45;;;;;;;19.95;17.85;;;1.40;99.90;;;;;;5071205;28;20093;-64
2022/04/01 07:12:11;;;;;;;19.90;17.65;;;1.50;99.90;;;;;;5073037;28;20032;-65
2022/04/01 07:14:37;;;;;;;20.30;17.42;;;1.50;99.90;;;;;;5072158;28;20032;-64
2022/04/01 07:17:03;;;;;;;19.70;17.60;;;1.50;99.90;;;;;;5072996;28;20476;-64
2022/04/01 07:19:29;;;;;;;20.58;17.23;;;1.50;99.90;;;;;;5072201;28;20451;-65
2022/04/01 07:21:55;;;;;;;19.63;17.52;;;1.60;99.90;;;;;;5072537;28;20028;-63
2022/04/01 07:24:20;;;;;;;19.90;17.88;;;1.60;99.90;;;;;;5072136;28;20032;-65
2022/04/01 07:26:46;;;;;;;20.90;18.15;;;1.50;99.90;;;;;;5072612;28;20082;-64
2022/04/01 07:29:12;;;;;;;19.65;17.58;;;1.60;99.90;;;;;;5074391;28;20419;-64
2022/04/01 07:34:36;;;;;;;19.45;17.10;;;1.50;99.90;;;;;;5079039;28;20075;-63
2022/04/01 07:37:02;;;;;;;19.27;16.70;;;1.50;99.90;;;;;;5077518;28;20568;-66
2022/04/01 07:39:28;;;;;;;18.52;15.68;;;1.50;99.90;;;;;;5077277;28;20031;-65
2022/04/01 07:41:53;;;;;;;18.95;16.65;;;1.50;99.90;;;;;;5079069;28;20095;-62
2022/04/01 07:44:19;;;;;;;19.40;16.40;;;1.50;99.90;;;;;;5077430;28;20025;-65
2022/04/01 07:46:45;;;;;;;20.30;16.90;;;1.50;99.90;;;;;;5078899;28;20020;-64
2022/04/01 07:49:11;;;;;;;22.13;16.88;;;1.50;99.90;;;;;;5077409;28;20071;-62
2022/04/01 07:51:37;;;;;;;20.70;15.68;;;1.50;99.90;;;;;;5078040;28;20126;-64
2022/04/01 07:54:03;;;;;;;19.05;16.05;;;1.60;99.90;;;;;;5078880;28;20024;-62
2022/04/01 07:56:31;;;;;;;18.95;16.02;;;1.60;99.90;;;;;;5078541;28;20024;-63
2022/04/01 07:59:00;;;;;;;20.10;15.88;;;1.60;99.90;;;;;;5079401;28;20029;-65
2022/04/01 08:01:26;;;;;;;20.90;16.45;;;1.60;99.90;;;;;;5082681;28;20024;-65
2022/04/01 08:03:51;;;;;;;18.42;16.17;;;1.60;99.90;;;;;;5083964;28;20396;-64
2022/04/01 08:06:17;;;;;;;17.83;15.45;;;1.70;99.90;;;;;;5082504;28;20025;-65
2022/04/01 08:08:43;;;;;;;18.58;15.38;;;1.80;99.90;;;;;;5084630;28;20024;-66
2022/04/01 08:11:09;;;;;;;18.55;14.45;;;1.80;99.90;;;;;;5083848;28;20029;-66
2022/04/01 08:13:34;;;;;;;19.00;14.63;;;1.90;99.90;;;;;;5082435;28;20033;-66
2022/04/01 08:16:01;;;;;;;19.98;16.25;;;2.00;99.90;;;;;;5081038;28;20115;-61
2022/04/01 08:18:27;;;;;;;20.77;16.00;;;2.10;99.90;;;;;;5078731;28;20021;-65
2022/04/01 08:20:53;;;;;;;21.20;16.20;;;2.10;99.90;;;;;;5078601;28;20019;-65
2022/04/01 08:23:19;;;;;;;18.80;15.70;;;2.10;99.90;;;;;;5079246;28;20017;-65
2022/04/01 08:25:48;;;;;;;18.67;15.20;;;2.30;99.90;;;;;;5078508;28;20151;-65
2022/04/01 08:28:14;;;;;;;20.30;16.08;;;2.20;99.90;;;;;;5078779;28;20029;-66
2022/04/01 08:30:41;;;;;;;20.40;15.75;;;2.40;99.90;;;;;;5078424;28;20020;-66
2022/04/01 08:33:07;;;;;;;18.38;14.65;;;2.50;99.90;;;;;;5077446;28;20035;-66
2022/04/01 08:35:33;;;;;;;18.58;15.20;;;2.40;99.90;;;;;;5078708;28;20052;-65
2022/04/01 08:37:59;;;;;;;20.00;15.05;;;2.40;99.90;;;;;;5078788;28;20025;-65
2022/04/01 08:40:26;;;;;;;19.70;15.82;;;2.40;99.90;;;;;;5075482;28;20029;-65
2022/04/01 08:42:52;;;;;;;21.73;15.35;;;2.60;99.90;;;;;;5075512;28;20496;-65
2022/04/01 08:45:19;;;;;;;18.42;14.55;;;2.60;99.90;;;;;;5075208;28;20032;-65
2022/04/01 08:47:46;;;;;;;19.55;15.18;;;2.60;99.90;;;;;;5075126;28;20060;-65
2022/04/01 08:50:11;;;;;;;20.17;16.02;;;2.60;99.90;;;;;;5074868;28;20039;-65
2022/04/01 08:52:38;;;;;;;18.83;14.55;;;2.70;99.90;;;;;;5075313;28;20396;-65
2022/04/01 08:55:10;;;;;;;17.85;14.63;;;2.80;99.90;;;;;;5075314;28;20033;-64
2022/04/01 08:57:40;;;;;;;18.42;14.80;;;2.70;99.90;;;;;;5075297;28;20106;-63
2022/04/01 09:00:15;;;;;;;18.42;14.50;;;2.60;99.90;;;;;;5074836;28;20644;-64
2022/04/01 09:02:41;;;;;;;17.52;13.73;;;2.50;99.90;;;;;;5075068;28;20063;-65
2022/04/01 09:05:11;;;;;;;18.05;14.02;;;2.40;99.90;;;;;;5074489;28;20028;-65
2022/04/01 09:07:37;;;;;;;19.85;14.68;;;2.40;99.90;;;;;;5075161;28;20028;-66
2022/04/01 09:10:07;;;;;;;21.65;14.50;;;2.40;99.90;;;;;;5074725;28;20439;-63
2022/04/01 09:12:34;;;;;;;17.88;14.05;;;2.50;99.90;;;;;;5075340;28;20046;-64
2022/04/01 09:15:01;;;;;;;18.77;14.60;;;2.40;99.90;;;;;;5074398;28;20484;-65
2022/04/01 09:17:40;;;;;;;18.17;14.00;;;2.40;99.90;;;;;;5073361;28;20025;-65
2022/04/01 09:20:07;;;;;;;19.15;14.23;;;2.40;99.90;;;;;;5074911;28;20024;-64
2022/04/01 09:22:34;;;;;;;20.30;14.75;;;2.40;99.90;;;;;;5074618;28;20021;-65
2022/04/01 09:25:12;;;;;;;17.50;13.77;;;2.30;99.90;;;;;;5074432;28;20029;-64
2022/04/01 09:27:51;;;;;;;19.42;14.10;;;2.50;99.90;;;;;;5074460;28;20082;-65
2022/04/01 09:30:18;;;;;;;18.25;14.65;;;2.40;99.90;;;;;;5073935;28;20538;-64
2022/04/01 09:32:51;;;;;;;18.27;13.77;;;2.30;99.90;;;;;;5074199;28;20040;-64
2022/04/01 09:35:20;;;;;;;18.58;14.23;;;2.30;99.90;;;;;;5073379;28;20537;-64
2022/04/01 09:37:50;;;;;;;18.42;14.10;;;2.40;99.90;;;;;;5073674;28;20016;-64
2022/04/01 09:40:20;;;;;;;21.55;14.18;;;2.50;99.90;;;;;;5073731;28;20476;-65
2022/04/01 09:42:48;;;;;;;17.98;14.18;;;2.50;99.90;;;;;;5073705;28;20104;-62
2022/04/01 09:45:18;;;;;;;18.70;13.95;;;2.70;99.90;;;;;;5073140;28;20052;-65
2022/04/01 09:47:45;;;;;;;18.95;13.82;;;2.70;99.90;;;;;;5073691;28;20059;-64
2022/04/01 09:50:17;;;;;;;20.05;14.23;;;2.90;99.90;;;;;;5073035;28;20052;-64
2022/04/01 09:52:42;;;;;;;20.35;14.25;;;2.80;99.90;;;;;;5073481;28;20576;-65
2022/04/01 09:55:09;;;;;;;18.35;14.07;;;2.90;99.90;;;;;;5072459;28;20021;-63
2022/04/01 09:57:35;;;;;;;18.00;13.93;;;3.00;99.90;;;;;;5072985;28;20052;-65
2022/04/01 10:00:03;;;;;;;18.75;14.73;;;2.90;99.90;;;;;;4718190;28;10000453;-65
2022/04/01 10:02:30;;;;;;;20.45;14.30;;;2.90;99.90;;;;;;5069037;28;20033;-64
2022/04/01 10:04:58;;;;;;;18.00;13.70;;;3.00;99.90;;;;;;5070284;28;20074;-65
2022/04/01 10:07:28;;;;;;;18.30;13.75;;;2.80;99.90;;;;;;5070249;28;20107;-66
2022/04/01 10:09:55;;;;;;;19.42;14.55;;;2.90;99.90;;;;;;5050330;28;20032;-64
2022/04/01 10:12:25;;;;;;;20.85;13.90;;;2.80;99.90;;;;;;5050443;28;20045;-63
2022/04/01 10:14:54;;;;;;;17.27;13.35;;;2.80;99.90;;;;;;5048972;28;20107;-65
2022/04/01 10:17:21;;;;;;;19.27;13.82;;;2.80;99.90;;;;;;5061754;28;20154;-63
2022/04/01 10:19:49;;;;;;;20.70;13.57;;;2.90;99.90;;;;;;5070042;28;20028;-63
2022/04/01 10:22:16;;;;;;;18.70;13.82;;;2.90;99.90;;;;;;5069094;28;20047;-64
2022/04/01 10:24:59;;;;;;;18.73;13.63;;;3.10;99.90;;;;;;5069933;28;20111;-63
2022/04/01 10:27:33;;;;;;;19.02;13.05;;;3.00;99.90;;;;;;5069851;28;20035;-61
2022/04/01 10:29:59;;;;;;;23.65;14.20;;;2.90;99.90;;;;;;5064903;28;20028;-63
2022/04/01 10:32:44;;;;;;;17.88;13.73;;;3.00;99.90;;;;;;5070632;28;20021;-64
2022/04/01 10:35:30;;;;;;;20.25;13.68;;;2.90;99.90;;;;;;5070096;28;20020;-63
2022/04/01 10:38:16;;;;;;;19.27;14.02;;;2.70;99.90;;;;;;5071770;28;20041;-63
2022/04/01 10:40:45;;;;;;;23.08;15.02;;;2.80;99.90;;;;;;5072533;28;20024;-63
2022/04/01 10:43:27;;;;;;;18.65;13.73;;;3.00;99.90;;;;;;5069853;28;20074;-63
2022/04/01 10:46:06;;;;;;;21.90;13.65;;;3.00;99.90;;;;;;5070811;28;20453;-63
2022/04/01 10:51:37;;;;;;;20.17;14.27;;;3.30;99.90;;;;;;5073319;28;20417;-64
2022/04/01 10:54:12;;;;;;;18.85;14.20;;;3.20;99.90;;;;;;5072466;28;20545;-65
2022/04/01 10:56:43;;;;;;;19.83;13.80;;;3.20;99.90;;;;;;5072928;28;20055;-62
2022/04/01 10:59:16;;;;;;;19.33;14.63;;;3.20;99.90;;;;;;5072270;28;20036;-60
2022/04/01 11:01:54;;;;;;;19.23;14.52;;;3.20;99.90;;;;;;5066268;28;20477;-63
2022/04/01 11:04:19;;;;;;;21.15;14.68;;;3.30;99.90;;;;;;5072949;28;20024;-60
2022/04/01 11:07:00;;;;;;;19.08;14.95;;;3.30;99.90;;;;;;5092334;28;20023;-56
2022/04/01 11:09:45;;;;;;;19.10;14.82;;;3.40;99.90;;;;;;5085968;28;20444;-61
2022/04/01 11:12:19;;;;;;;18.17;15.18;;;3.40;99.90;;;;;;5072851;28;20100;-60
2022/04/01 11:14:56;;;;;;;19.05;15.13;;;3.50;99.90;;;;;;5072335;28;20033;-62
2022/04/01 11:17:23;;;;;;;24.00;17.95;;;3.60;99.90;;;;;;5073795;28;20096;-65
2022/04/01 11:20:00;;;;;;;19.55;14.30;;;3.50;99.90;;;;;;5091853;28;20021;-66
2022/04/01 11:22:46;;;;;;;23.90;15.02;;;3.50;99.90;;;;;;5092462;28;20024;-61
2022/04/01 11:25:33;;;;;;;19.40;14.15;;;3.40;99.90;;;;;;5092200;28;20110;-61
2022/04/01 11:27:59;;;;;;;18.85;14.20;;;3.20;99.90;;;;;;5092141;28;20075;-61
2022/04/01 11:30:25;;;;;;;21.65;14.60;;;3.30;99.90;;;;;;5091961;28;20060;-59
2022/04/01 11:32:56;;;;;;;18.30;13.50;;;3.20;99.90;;;;;;5092458;28;20032;-63
2022/04/01 11:35:25;;;;;;;18.92;13.77;;;3.20;99.90;;;;;;5084055;28;20020;-61
2022/04/01 11:37:51;;;;;;;19.30;13.98;;;3.20;99.90;;;;;;5092272;28;20024;-61
2022/04/01 11:40:25;;;;;;;20.23;13.90;;;3.30;99.90;;;;;;5092269;28;20031;-60
2022/04/01 11:43:03;;;;;;;19.63;13.82;;;3.40;99.90;;;;;;5091102;28;20434;-60
2022/04/01 11:45:31;;;;;;;18.55;13.35;;;3.40;99.90;;;;;;5092194;28;20040;-61
2022/04/01 11:47:57;;;;;;;20.30;14.20;;;3.40;99.90;;;;;;5090711;28;20486;-60
2022/04/01 11:50:24;;;;;;;20.17;13.60;;;3.40;99.90;;;;;;5091287;28;20032;-59
2022/04/01 11:52:54;;;;;;;19.48;13.90;;;3.50;99.90;;;;;;5090881;28;20030;-62
2022/04/01 11:55:22;;;;;;;20.17;14.65;;;;;;;;;;5091964;28;20480;-60
2022/04/01 11:57:48;;;;;;;18.00;13.50;;;;;;;;;;5091783;28;20119;-57
2022/04/01 12:00:18;;;;;;;18.10;13.00;;;;;;;;;;5092753;28;20024;-62
2022/04/01 12:02:46;;;;;;;18.75;12.82;;;;;;;;;;5073826;28;20041;-61
2022/04/01 12:05:12;;;;;;;18.55;12.82;;;;;;;;;;5071841;28;20417;-60
2022/04/01 12:10:24;;;;;;;18.02;12.88;;;;;;;;;;5088363;28;20081;-62
2022/04/01 12:13:10;;;;;;;20.27;12.85;;;;;;;;;;5092152;28;20406;-56
2022/04/01 12:15:43;;;;;;;19.00;13.02;;;;;;;;;;5092401;28;20030;-57
2022/04/01 12:18:10;;;;;;;18.85;12.68;;;;;;;;;;5096147;28;20055;-57
2022/04/01 12:20:40;;;;;;;20.00;12.40;;;;;;;;;;5095727;28;20476;-60
2022/04/01 12:23:06;;;;;;;19.10;12.88;;;;;;;;;;5094457;28;20123;-58
2022/04/01 12:25:35;;;;;;;18.02;12.52;;;;;;;;;;5095036;28;20130;-56
2022/04/01 12:28:05;;;;;;;17.42;13.35;;;;;;;;;;5097291;28;20568;-60
2022/04/01 12:30:44;;;;;;;21.40;12.10;;;;;;;;;;5093828;28;20161;-61
2022/04/01 12:33:25;;;;;;;21.55;13.00;;;3.50;99.90;;;;;;5095295;28;20028;-62
2022/04/01 12:36:01;;;;;;;18.20;12.00;;;4.00;99.90;;;;;;4375155;28;10000110;-58
2022/04/01 12:38:29;;;;;;;17.65;12.15;;;4.00;99.90;;;;;;5073915;28;20294;-62
2022/04/01 12:41:18;;;;;;;18.90;11.93;;;3.80;99.90;;;;;;5073902;28;20115;-60
2022/04/01 12:43:46;;;;;;;19.05;12.77;;;3.80;99.90;;;;;;5070415;28;20032;-59
2022/04/01 12:46:17;;;;;;;17.65;12.13;;;3.80;99.90;;;;;;5072980;28;20025;-60
2022/04/01 12:48:47;;;;;;;18.63;12.63;;;3.80;99.90;;;;;;5075119;28;20032;-58
2022/04/01 12:51:34;;;;;;;19.58;13.07;;;3.90;99.90;;;;;;5073350;28;20050;-57
2022/04/01 12:54:06;;;;;;;17.35;11.93;;;4.00;99.90;;;;;;5074375;28;20016;-57
2022/04/01 12:56:43;;;;;;;20.40;12.57;;;4.00;99.90;;;;;;5074482;28;20043;-65
2022/04/01 12:59:16;;;;;;;22.70;15.45;;;4.10;99.90;;;;;;5074269;28;20056;-65
2022/04/01 13:01:54;;;;;;;21.17;12.20;;;4.00;99.90;;;;;;5074611;28;20031;-66
2022/04/01 13:04:21;;;;;;;17.23;11.32;;;3.80;99.90;;;;;;5074631;28;20504;-66
2022/04/01 13:07:05;;;;;;;20.63;12.85;;;3.70;99.90;;;;;;5074183;28;20040;-65